Kitakyushu, Japan
Current Conditions -  °F | °C
As of 8:00 AM on Thursday 23 Oct 2014 (Local Time) from RJFR Reporting Station
Few Clouds Few Clouds  
Wind Chill: 63°   Ceiling: Unl
Heat Index: 63°   Visibility: 6mi
Dew Point: 50°   Wind: 9mph
Humidity: 63%   Direction: 30°NNE
Pressure: 30.09"   Gusts: NA
Location:  33.88°N, 130.86°E
Report Text: RJFR 222300Z 03008KT 9999 FEW025 17/10 Q1019
Loading
Personal Weather Stations






























Interactive Weather Map
Tropical Storm Tracking
New forecast layout! Learn more

10-Day Weather Forecast

Advertisements
Track Severe Weather on mobile